Wetterdaten: Woche 23.09.13 - 29.09.13 (KW39)
Datum Zeit Temperatur Luftfeuchte Luftdruck Niederschlag Windrichtung Sonnenschein Solar Wind
23.09.2013 00:00 9,7 C 89 % 1026,1 hPa 0,0 l/m N 0,00 h 0 W/m 1,3 km/h (1 Bft)
23.09.2013 01:00 9,2 C 91 % 1026,0 hPa 0,0 l/m N 0,00 h 0 W/m 0,4 km/h (0 Bft)
23.09.2013 02:00 8,6 C 91 % 1025,8 hPa 0,0 l/m N 0,00 h 0 W/m 0,0 km/h (0 Bft)
23.09.2013 03:00 7,9 C 92 % 1025,3 hPa 0,0 l/m N 0,00 h 0 W/m 0,0 km/h (0 Bft)
23.09.2013 04:00 7,2 C 92 % 1025,2 hPa 0,0 l/m N 0,00 h 0 W/m 0,0 km/h (0 Bft)
23.09.2013 05:00 6,7 C 93 % 1025,1 hPa 0,0 l/m N 0,00 h 0 W/m 0,1 km/h (0 Bft)
23.09.2013 06:00 6,6 C 94 % 1025,1 hPa 0,0 l/m N 0,00 h 0 W/m 0,0 km/h (0 Bft)
23.09.2013 07:00 6,7 C 94 % 1025,0 hPa 0,0 l/m N 0,00 h 20 W/m 0,7 km/h (0 Bft)
23.09.2013 08:00 7,3 C 96 % 1024,9 hPa 0,0 l/m N 0,50 h 124 W/m 0,3 km/h (0 Bft)
23.09.2013 09:00 10,3 C 97 % 1024,8 hPa 0,0 l/m NW 1,00 h 303 W/m 1,7 km/h (1 Bft)
23.09.2013 10:00 12,7 C 89 % 1024,6 hPa 0,0 l/m NW 1,00 h 450 W/m 6,5 km/h (2 Bft)
23.09.2013 11:00 14,7 C 80 % 1024,0 hPa 0,0 l/m NO 0,67 h 450 W/m 9,3 km/h (2 Bft)
23.09.2013 12:00 16,0 C 73 % 1023,3 hPa 0,0 l/m NO 0,67 h 557 W/m 9,9 km/h (2 Bft)
23.09.2013 13:00 17,2 C 68 % 1022,8 hPa 0,0 l/m O-NO 1,00 h 699 W/m 8,4 km/h (2 Bft)
23.09.2013 14:00 18,6 C 64 % 1022,0 hPa 0,0 l/m O-NO 1,00 h 663 W/m 11,4 km/h (2 Bft)
23.09.2013 15:00 20,2 C 59 % 1021,3 hPa 0,0 l/m O 1,00 h 576 W/m 10,3 km/h (2 Bft)
23.09.2013 16:00 20,8 C 57 % 1020,8 hPa 0,0 l/m NO 1,00 h 457 W/m 9,1 km/h (2 Bft)
23.09.2013 17:00 20,5 C 57 % 1020,4 hPa 0,0 l/m NO 1,00 h 291 W/m 8,4 km/h (2 Bft)
23.09.2013 18:00 18,9 C 60 % 1020,2 hPa 0,0 l/m O-NO 0,50 h 78 W/m 7,0 km/h (2 Bft)
23.09.2013 19:00 16,4 C 72 % 1020,1 hPa 0,0 l/m N 0,00 h 8 W/m 0,1 km/h (0 Bft)
23.09.2013 20:00 13,7 C 80 % 1020,6 hPa 0,0 l/m N 0,00 h 0 W/m 0,4 km/h (0 Bft)
23.09.2013 21:00 12,1 C 86 % 1020,5 hPa 0,0 l/m N 0,00 h 0 W/m 1,1 km/h (0 Bft)
23.09.2013 22:00 11,1 C 89 % 1020,2 hPa 0,0 l/m O-NO 0,00 h 0 W/m 3,1 km/h (1 Bft)
23.09.2013 23:00 10,6 C 91 % 1020,0 hPa 0,0 l/m O-NO 0,00 h 0 W/m 2,7 km/h (1 Bft)
24.09.2013 00:00 9,8 C 92 % 1019,7 hPa 0,0 l/m N 0,00 h 0 W/m 1,1 km/h (0 Bft)
24.09.2013 01:00 9,1 C 92 % 1019,3 hPa 0,0 l/m N 0,00 h 0 W/m 1,5 km/h (1 Bft)
24.09.2013 02:00 8,7 C 93 % 1019,0 hPa 0,0 l/m N 0,00 h 0 W/m 0,7 km/h (0 Bft)
24.09.2013 03:00 8,4 C 94 % 1018,5 hPa 0,0 l/m NO 0,00 h 0 W/m 2,8 km/h (1 Bft)
24.09.2013 04:00 8,7 C 95 % 1018,3 hPa 0,0 l/m NO 0,00 h 0 W/m 3,2 km/h (1 Bft)
24.09.2013 05:00 8,5 C 96 % 1018,0 hPa 0,0 l/m NO 0,00 h 0 W/m 1,7 km/h (1 Bft)
24.09.2013 06:00 7,7 C 96 % 1017,6 hPa 0,0 l/m NO 0,00 h 0 W/m 3,1 km/h (1 Bft)
24.09.2013 07:00 6,8 C 96 % 1017,4 hPa 0,0 l/m N 0,00 h 19 W/m 1,2 km/h (1 Bft)
24.09.2013 08:00 6,9 C 96 % 1017,3 hPa 0,0 l/m N 0,00 h 82 W/m 1,5 km/h (1 Bft)
24.09.2013 09:00 7,9 C 98 % 1017,2 hPa 0,0 l/m NO 0,00 h 115 W/m 3,5 km/h (1 Bft)
24.09.2013 10:00 9,5 C 98 % 1017,1 hPa 0,0 l/m N 0,00 h 188 W/m 2,7 km/h (1 Bft)
24.09.2013 11:00 11,1 C 96 % 1016,6 hPa 0,0 l/m O-NO 0,42 h 405 W/m 4,1 km/h (1 Bft)
24.09.2013 12:00 13,2 C 90 % 1015,8 hPa 0,0 l/m O-NO 1,00 h 678 W/m 5,7 km/h (1 Bft)
24.09.2013 13:00 16,4 C 79 % 1015,2 hPa 0,0 l/m S 1,00 h 671 W/m 6,8 km/h (2 Bft)
24.09.2013 14:00 19,0 C 68 % 1014,6 hPa 0,0 l/m S-SW 1,00 h 638 W/m 6,4 km/h (2 Bft)
24.09.2013 15:00 20,9 C 57 % 1014,3 hPa 0,0 l/m SW 1,00 h 554 W/m 9,4 km/h (2 Bft)
24.09.2013 16:00 21,7 C 57 % 1013,9 hPa 0,0 l/m W-SW 1,00 h 447 W/m 8,0 km/h (2 Bft)
24.09.2013 17:00 19,5 C 69 % 1013,4 hPa 0,0 l/m SW 1,00 h 280 W/m 10,1 km/h (2 Bft)
24.09.2013 18:00 17,0 C 82 % 1013,3 hPa 0,0 l/m SW 0,50 h 70 W/m 6,6 km/h (2 Bft)
24.09.2013 19:00 15,3 C 87 % 1013,2 hPa 0,0 l/m SW 0,08 h 8 W/m 4,5 km/h (1 Bft)
24.09.2013 20:00 14,2 C 87 % 1013,3 hPa 0,0 l/m N 0,00 h 0 W/m 0,7 km/h (0 Bft)
24.09.2013 21:00 12,7 C 88 % 1013,5 hPa 0,0 l/m N 0,00 h 0 W/m 0,0 km/h (0 Bft)
24.09.2013 22:00 11,3 C 90 % 1013,5 hPa 0,0 l/m N 0,00 h 0 W/m 0,0 km/h (0 Bft)
24.09.2013 23:00 10,4 C 91 % 1013,2 hPa 0,0 l/m N 0,00 h 0 W/m 0,0 km/h (0 Bft)
25.09.2013 00:00 9,7 C 93 % 1013,1 hPa 0,0 l/m N 0,00 h 0 W/m 0,0 km/h (0 Bft)
25.09.2013 01:00 8,9 C 93 % 1013,0 hPa 0,0 l/m N 0,00 h 0 W/m 0,0 km/h (0 Bft)
25.09.2013 02:00 8,4 C 94 % 1013,1 hPa 0,0 l/m N 0,00 h 0 W/m 0,0 km/h (0 Bft)
25.09.2013 03:00 7,9 C 94 % 1012,8 hPa 0,0 l/m N 0,00 h 0 W/m 0,0 km/h (0 Bft)
25.09.2013 04:00 7,3 C 94 % 1012,4 hPa 0,0 l/m N 0,00 h 0 W/m 0,0 km/h (0 Bft)
25.09.2013 05:00 6,9 C 95 % 1012,4 hPa 0,0 l/m N 0,00 h 0 W/m 0,0 km/h (0 Bft)
25.09.2013 06:00 6,5 C 95 % 1012,3 hPa 0,0 l/m N 0,00 h 0 W/m 0,0 km/h (0 Bft)
25.09.2013 07:00 6,1 C 95 % 1012,3 hPa 0,2 l/m N 0,00 h 14 W/m 0,0 km/h (0 Bft)
25.09.2013 08:00 6,9 C 96 % 1012,4 hPa 0,0 l/m N 0,00 h 58 W/m 0,0 km/h (0 Bft)
25.09.2013 09:00 9,6 C 98 % 1012,3 hPa 0,0 l/m SW 0,33 h 198 W/m 5,1 km/h (1 Bft)
25.09.2013 10:00 12,8 C 95 % 1011,9 hPa 0,0 l/m S-SW 1,00 h 419 W/m 10,9 km/h (2 Bft)
25.09.2013 11:00 16,5 C 85 % 1011,7 hPa 0,0 l/m S-SW 1,00 h 554 W/m 13,0 km/h (3 Bft)
25.09.2013 12:00 18,6 C 79 % 1011,4 hPa 0,0 l/m SW 1,00 h 594 W/m 16,1 km/h (3 Bft)
25.09.2013 13:00 20,4 C 69 % 1011,0 hPa 0,0 l/m W-SW 1,00 h 665 W/m 19,6 km/h (3 Bft)
25.09.2013 14:00 21,4 C 64 % 1010,4 hPa 0,0 l/m W-SW 1,00 h 576 W/m 18,2 km/h (3 Bft)
25.09.2013 15:00 21,4 C 64 % 1010,0 hPa 0,0 l/m W-SW 1,00 h 518 W/m 22,0 km/h (4 Bft)
25.09.2013 16:00 20,9 C 66 % 1009,8 hPa 0,0 l/m W-SW 0,92 h 332 W/m 18,9 km/h (3 Bft)
25.09.2013 17:00 20,4 C 69 % 1009,7 hPa 0,0 l/m W-SW 1,00 h 210 W/m 14,8 km/h (3 Bft)
25.09.2013 18:00 19,1 C 74 % 1009,8 hPa 0,0 l/m W-SW 0,08 h 48 W/m 9,9 km/h (2 Bft)
25.09.2013 19:00 16,7 C 83 % 1010,3 hPa 0,0 l/m W-SW 0,00 h 6 W/m 4,8 km/h (1 Bft)
25.09.2013 20:00 14,8 C 90 % 1010,7 hPa 0,0 l/m N 0,00 h 0 W/m 1,9 km/h (1 Bft)
25.09.2013 21:00 13,7 C 93 % 1011,2 hPa 0,0 l/m N 0,00 h 0 W/m 0,0 km/h (0 Bft)
25.09.2013 22:00 12,6 C 96 % 1011,4 hPa 0,0 l/m N 0,00 h 0 W/m 0,0 km/h (0 Bft)
25.09.2013 23:00 11,9 C 96 % 1011,6 hPa 0,0 l/m N 0,00 h 0 W/m 0,3 km/h (0 Bft)
26.09.2013 00:00 12,1 C 98 % 1011,7 hPa 0,0 l/m N 0,00 h 0 W/m 0,9 km/h (0 Bft)
26.09.2013 01:00 12,6 C 98 % 1011,7 hPa 0,0 l/m N 0,00 h 0 W/m 0,9 km/h (0 Bft)
26.09.2013 02:00 13,2 C 98 % 1011,9 hPa 0,0 l/m N 0,00 h 0 W/m 1,1 km/h (0 Bft)
26.09.2013 03:00 14,0 C 98 % 1011,6 hPa 0,0 l/m SW 0,00 h 0 W/m 6,8 km/h (2 Bft)
26.09.2013 04:00 14,9 C 96 % 1011,5 hPa 0,4 l/m SW 0,00 h 0 W/m 12,9 km/h (3 Bft)
26.09.2013 05:00 14,5 C 96 % 1011,6 hPa 0,2 l/m SW 0,00 h 0 W/m 11,3 km/h (2 Bft)
26.09.2013 06:00 14,1 C 98 % 1011,4 hPa 0,2 l/m SW 0,00 h 0 W/m 6,6 km/h (2 Bft)
26.09.2013 07:00 14,3 C 98 % 1011,4 hPa 0,0 l/m SW 0,00 h 15 W/m 13,3 km/h (3 Bft)
26.09.2013 08:00 14,5 C 97 % 1011,8 hPa 0,6 l/m SW 0,00 h 32 W/m 10,8 km/h (2 Bft)
26.09.2013 09:00 14,7 C 96 % 1012,0 hPa 0,4 l/m SW 0,00 h 42 W/m 5,2 km/h (1 Bft)
26.09.2013 10:00 14,9 C 97 % 1012,2 hPa 0,4 l/m SW 0,00 h 81 W/m 4,3 km/h (1 Bft)
26.09.2013 11:00 16,1 C 97 % 1012,6 hPa 0,0 l/m SW 0,00 h 176 W/m 8,7 km/h (2 Bft)
26.09.2013 12:00 17,1 C 94 % 1012,7 hPa 0,0 l/m SW 0,00 h 193 W/m 12,8 km/h (3 Bft)
26.09.2013 13:00 17,9 C 91 % 1012,6 hPa 0,0 l/m SW 0,00 h 234 W/m 14,0 km/h (3 Bft)
26.09.2013 14:00 18,9 C 88 % 1012,4 hPa 0,0 l/m S-SW 0,58 h 411 W/m 17,6 km/h (3 Bft)
26.09.2013 15:00 18,6 C 88 % 1012,4 hPa 0,0 l/m SW 0,00 h 129 W/m 17,6 km/h (3 Bft)
26.09.2013 16:00 18,6 C 88 % 1012,3 hPa 0,0 l/m SW 0,25 h 180 W/m 12,3 km/h (3 Bft)
26.09.2013 17:00 18,2 C 89 % 1012,0 hPa 0,0 l/m SW 0,00 h 32 W/m 7,9 km/h (2 Bft)
26.09.2013 18:00 17,2 C 92 % 1012,4 hPa 0,0 l/m SW 0,00 h 21 W/m 6,4 km/h (2 Bft)
26.09.2013 19:00 16,2 C 94 % 1012,8 hPa 0,0 l/m SW 0,00 h 5 W/m 1,9 km/h (1 Bft)
26.09.2013 20:00 15,7 C 96 % 1013,4 hPa 0,0 l/m N 0,00 h 0 W/m 0,7 km/h (0 Bft)
26.09.2013 21:00 15,4 C 97 % 1013,9 hPa 0,0 l/m N 0,00 h 0 W/m 0,0 km/h (0 Bft)
26.09.2013 22:00 15,1 C 98 % 1014,0 hPa 0,0 l/m N 0,00 h 0 W/m 0,7 km/h (0 Bft)
26.09.2013 23:00 14,9 C 98 % 1014,1 hPa 0,0 l/m SW 0,00 h 0 W/m 0,5 km/h (0 Bft)
27.09.2013 00:00 14,8 C 97 % 1014,1 hPa 0,0 l/m N 0,00 h 0 W/m 0,8 km/h (0 Bft)
27.09.2013 01:00 14,7 C 96 % 1013,8 hPa 0,4 l/m SW 0,00 h 0 W/m 1,5 km/h (1 Bft)
27.09.2013 02:00 14,3 C 96 % 1013,7 hPa 0,0 l/m N 0,00 h 0 W/m 0,5 km/h (0 Bft)
27.09.2013 03:00 14,0 C 96 % 1013,3 hPa 0,0 l/m N 0,00 h 0 W/m 1,5 km/h (1 Bft)
27.09.2013 04:00 13,7 C 96 % 1013,2 hPa 0,0 l/m SW 0,00 h 0 W/m 1,9 km/h (1 Bft)
27.09.2013 05:00 13,6 C 97 % 1013,1 hPa 0,0 l/m N 0,00 h 0 W/m 1,9 km/h (1 Bft)
27.09.2013 06:00 13,4 C 97 % 1012,9 hPa 0,0 l/m N 0,00 h 0 W/m 0,1 km/h (0 Bft)
27.09.2013 07:00 13,4 C 97 % 1013,0 hPa 0,0 l/m N 0,00 h 7 W/m 0,1 km/h (0 Bft)
27.09.2013 08:00 13,6 C 98 % 1013,1 hPa 0,0 l/m N 0,00 h 16 W/m 0,0 km/h (0 Bft)
27.09.2013 09:00 14,0 C 98 % 1013,1 hPa 0,0 l/m N 0,00 h 59 W/m 0,7 km/h (0 Bft)
27.09.2013 10:00 14,7 C 98 % 1013,2 hPa 0,0 l/m SW 0,00 h 84 W/m 3,9 km/h (1 Bft)
27.09.2013 11:00 15,3 C 96 % 1013,1 hPa 0,0 l/m SW 0,00 h 116 W/m 3,6 km/h (1 Bft)
27.09.2013 12:00 16,1 C 93 % 1013,0 hPa 0,0 l/m SW 0,17 h 249 W/m 3,9 km/h (1 Bft)
27.09.2013 13:00 17,6 C 87 % 1012,7 hPa 0,0 l/m SW 0,50 h 378 W/m 4,5 km/h (1 Bft)
27.09.2013 14:00 18,4 C 84 % 1012,2 hPa 0,0 l/m O 0,17 h 308 W/m 8,9 km/h (2 Bft)
27.09.2013 15:00 18,8 C 81 % 1012,0 hPa 0,0 l/m O-NO 0,33 h 283 W/m 9,7 km/h (2 Bft)
27.09.2013 16:00 19,1 C 80 % 1011,7 hPa 0,0 l/m O-NO 0,50 h 219 W/m 8,6 km/h (2 Bft)
27.09.2013 17:00 18,3 C 83 % 1011,6 hPa 0,0 l/m O-NO 0,25 h 130 W/m 9,2 km/h (2 Bft)
27.09.2013 18:00 17,2 C 87 % 1011,8 hPa 0,0 l/m O-NO 0,00 h 28 W/m 7,9 km/h (2 Bft)
27.09.2013 19:00 16,1 C 91 % 1012,1 hPa 0,0 l/m O-NO 0,00 h 0 W/m 6,1 km/h (2 Bft)
27.09.2013 20:00 15,4 C 92 % 1012,2 hPa 0,0 l/m O-NO 0,00 h 0 W/m 4,3 km/h (1 Bft)
27.09.2013 21:00 14,3 C 94 % 1012,4 hPa 0,0 l/m N 0,00 h 0 W/m 1,5 km/h (1 Bft)
27.09.2013 22:00 13,1 C 97 % 1012,3 hPa 0,0 l/m N 0,00 h 0 W/m 1,5 km/h (1 Bft)
27.09.2013 23:00 13,1 C 98 % 1012,0 hPa 0,0 l/m O-NO 0,00 h 0 W/m 3,5 km/h (1 Bft)
28.09.2013 00:00 12,7 C 98 % 1011,7 hPa 0,0 l/m O-NO 0,00 h 0 W/m 2,8 km/h (1 Bft)
28.09.2013 01:00 12,6 C 98 % 1011,3 hPa 0,0 l/m O-NO 0,00 h 0 W/m 4,9 km/h (1 Bft)
28.09.2013 02:00 12,7 C 98 % 1011,3 hPa 0,0 l/m O-NO 0,00 h 0 W/m 5,6 km/h (1 Bft)
28.09.2013 03:00 12,7 C 98 % 1010,9 hPa 0,0 l/m NO 0,00 h 0 W/m 5,6 km/h (1 Bft)
28.09.2013 04:00 12,6 C 98 % 1010,7 hPa 0,0 l/m NO 0,00 h 0 W/m 4,5 km/h (1 Bft)
28.09.2013 05:00 12,7 C 98 % 1010,5 hPa 0,0 l/m NO 0,00 h 0 W/m 4,9 km/h (1 Bft)
28.09.2013 06:00 12,4 C 97 % 1010,1 hPa 0,0 l/m NO 0,00 h 0 W/m 5,6 km/h (1 Bft)
28.09.2013 07:00 12,2 C 97 % 1010,2 hPa 0,0 l/m NO 0,00 h 7 W/m 4,1 km/h (1 Bft)
28.09.2013 08:00 12,2 C 98 % 1010,2 hPa 0,0 l/m NO 0,00 h 19 W/m 4,9 km/h (1 Bft)
28.09.2013 09:00 12,2 C 98 % 1010,4 hPa 0,0 l/m NO 0,00 h 48 W/m 5,9 km/h (2 Bft)
28.09.2013 10:00 12,7 C 98 % 1010,5 hPa 0,0 l/m NO 0,00 h 90 W/m 5,1 km/h (1 Bft)
28.09.2013 11:00 13,5 C 98 % 1010,2 hPa 0,0 l/m NO 0,00 h 102 W/m 6,9 km/h (2 Bft)
28.09.2013 12:00 14,1 C 95 % 1010,0 hPa 0,0 l/m O-NO 0,00 h 108 W/m 9,4 km/h (2 Bft)
28.09.2013 13:00 14,3 C 94 % 1009,7 hPa 0,0 l/m O-NO 0,00 h 117 W/m 9,2 km/h (2 Bft)
28.09.2013 14:00 14,7 C 93 % 1009,1 hPa 0,0 l/m NO 0,00 h 133 W/m 9,8 km/h (2 Bft)
28.09.2013 15:00 14,7 C 92 % 1008,9 hPa 0,0 l/m O-NO 0,00 h 88 W/m 11,3 km/h (2 Bft)
28.09.2013 16:00 14,7 C 92 % 1008,7 hPa 0,0 l/m O-NO 0,00 h 69 W/m 11,8 km/h (2 Bft)
28.09.2013 17:00 14,6 C 92 % 1008,3 hPa 0,0 l/m O 0,00 h 36 W/m 12,5 km/h (3 Bft)
28.09.2013 18:00 14,1 C 93 % 1008,0 hPa 0,0 l/m O-NO 0,00 h 11 W/m 11,3 km/h (2 Bft)
28.09.2013 19:00 13,7 C 94 % 1008,2 hPa 0,0 l/m O-NO 0,00 h 0 W/m 10,7 km/h (2 Bft)
28.09.2013 20:00 13,6 C 95 % 1008,1 hPa 0,0 l/m O 0,00 h 0 W/m 11,2 km/h (2 Bft)
28.09.2013 21:00 13,4 C 95 % 1007,8 hPa 0,0 l/m O 0,00 h 0 W/m 11,7 km/h (2 Bft)
28.09.2013 22:00 13,2 C 96 % 1007,6 hPa 0,0 l/m NO 0,00 h 0 W/m 8,7 km/h (2 Bft)
28.09.2013 23:00 13,2 C 96 % 1007,8 hPa 0,0 l/m O-NO 0,00 h 0 W/m 7,8 km/h (2 Bft)
29.09.2013 00:00 13,0 C 96 % 1007,3 hPa 0,0 l/m O-NO 0,00 h 0 W/m 10,2 km/h (2 Bft)
29.09.2013 01:00 12,9 C 97 % 1007,4 hPa 0,0 l/m O-NO 0,00 h 0 W/m 6,1 km/h (2 Bft)
29.09.2013 02:00 12,9 C 97 % 1007,0 hPa 0,4 l/m O-NO 0,00 h 0 W/m 8,2 km/h (2 Bft)
29.09.2013 03:00 12,7 C 98 % 1006,2 hPa 0,0 l/m O-NO 0,00 h 0 W/m 12,5 km/h (3 Bft)
29.09.2013 04:00 12,3 C 98 % 1006,2 hPa 0,0 l/m NO 0,00 h 0 W/m 12,1 km/h (2 Bft)
29.09.2013 05:00 11,4 C 97 % 1005,8 hPa 0,0 l/m N-NO 0,00 h 0 W/m 10,6 km/h (2 Bft)
29.09.2013 06:00 10,8 C 97 % 1005,9 hPa 0,0 l/m NO 0,00 h 0 W/m 11,4 km/h (2 Bft)
29.09.2013 07:00 10,2 C 97 % 1006,0 hPa 0,0 l/m O-NO 0,00 h 7 W/m 12,1 km/h (2 Bft)
29.09.2013 08:00 10,1 C 96 % 1005,7 hPa 0,0 l/m NO 0,00 h 25 W/m 12,5 km/h (3 Bft)
29.09.2013 09:00 10,0 C 96 % 1005,5 hPa 0,0 l/m NO 0,00 h 59 W/m 14,6 km/h (3 Bft)
29.09.2013 10:00 10,3 C 94 % 1005,4 hPa 0,0 l/m O-NO 0,00 h 111 W/m 15,2 km/h (3 Bft)
29.09.2013 11:00 11,0 C 91 % 1005,2 hPa 0,0 l/m O-NO 0,00 h 122 W/m 16,0 km/h (3 Bft)
29.09.2013 12:00 11,4 C 89 % 1005,0 hPa 0,0 l/m O-NO 0,00 h 138 W/m 19,2 km/h (3 Bft)
29.09.2013 13:00 11,8 C 88 % 1004,8 hPa 0,0 l/m O-NO 0,00 h 149 W/m 20,2 km/h (4 Bft)
29.09.2013 14:00 12,6 C 86 % 1004,6 hPa 0,0 l/m O 0,00 h 105 W/m 19,0 km/h (3 Bft)
29.09.2013 15:00 13,0 C 84 % 1004,2 hPa 0,0 l/m O-NO 0,00 h 126 W/m 19,6 km/h (3 Bft)
29.09.2013 16:00 13,3 C 83 % 1004,3 hPa 0,0 l/m O 0,00 h 60 W/m 16,9 km/h (3 Bft)
29.09.2013 17:00 12,9 C 83 % 1004,3 hPa 0,0 l/m O 0,00 h 25 W/m 17,7 km/h (3 Bft)
29.09.2013 18:00 12,2 C 82 % 1004,6 hPa 0,0 l/m O 0,00 h 8 W/m 22,4 km/h (4 Bft)
29.09.2013 19:00 11,5 C 84 % 1005,0 hPa 0,0 l/m O 0,00 h 0 W/m 20,1 km/h (4 Bft)
29.09.2013 20:00 11,4 C 84 % 1005,0 hPa 0,0 l/m O-NO 0,00 h 0 W/m 11,0 km/h (2 Bft)
29.09.2013 21:00 11,3 C 84 % 1005,0 hPa 0,0 l/m O-NO 0,00 h 0 W/m 11,7 km/h (2 Bft)
29.09.2013 22:00 11,2 C 83 % 1005,1 hPa 0,0 l/m O 0,00 h 0 W/m 13,0 km/h (3 Bft)
29.09.2013 23:00 11,0 C 84 % 1005,1 hPa 0,0 l/m O 0,00 h 0 W/m 8,6 km/h (2 Bft)
Min-Datum _ 25.09.13 24.09.13 29.09.13 - - - - 23.09.13
_ Min-Zeit 07:25 15:35 15:30 - - - - 00:00
Minimum _ 6,1 C 54 % 1004,1 hPa - - - - 0,0 km/h (0 Bft)
Max-Datum _ 24.09.13 28.09.13 23.09.13 26.09.13 - 23.09.13 23.09.13 29.09.13
_ Max-Zeit 16:30 08:15 00:25 08:05 - 08:30 12:50 19:05
Maximum _ 21,8 C 100 % 1026,3 hPa 0,6 l/m - 0,08 h 745 W/m 30,6 km/h
O-SO (5 Bft)
Durchschnitt _ 13,5 C 90 % 1013,0 hPa #3,2 l/m O-NO #27:25 h 207 W/m 6,7 km/h (2 Bft)